Time;durP1;ratioP1;P1;durP2;ratioP2;P2;SDS_P1;SDS_P2;PMS_P1;PMS_P2;Temp;Humidity;BMP_temperature;BMP_pressure;BME280_temperature;BME280_humidity;BME280_pressure;Samples;Min_cycle;Max_cycle;Signal;HPM_P1;HPM_P2
2023/03/06 00:00:05;;;;;;;9.02;3.90;;;;;;;4.33;75.76;100832.69;5073394;28;20096;-87
2023/03/06 00:02:31;;;;;;;5.13;3.72;;;;;;;4.33;75.74;100822.22;5091614;28;20032;-88
2023/03/06 00:04:56;;;;;;;4.90;3.80;;;;;;;4.27;75.91;100820.56;5073335;28;20039;-88
2023/03/06 00:07:21;;;;;;;6.93;3.60;;;;;;;4.29;75.67;100818.81;5086423;28;20058;-88
2023/03/06 00:09:46;;;;;;;6.40;3.67;;;;;;;4.26;75.68;100807.50;5090461;28;20019;-87
2023/03/06 00:12:12;;;;;;;5.97;4.38;;;;;;;4.27;75.53;100817.09;5091372;28;20467;-87
2023/03/06 00:14:37;;;;;;;7.43;3.75;;;;;;;4.20;76.21;100805.00;5073433;28;20024;-87
2023/03/06 00:17:02;;;;;;;8.30;4.20;;;;;;;4.19;76.99;100804.09;5088657;28;20027;-87
2023/03/06 00:19:28;;;;;;;7.90;4.43;;;;;;;4.12;76.53;100794.63;5091285;28;20034;-88
2023/03/06 00:21:53;;;;;;;6.35;3.85;;;;;;;4.16;76.72;100803.31;5091227;28;20032;-88
2023/03/06 00:24:19;;;;;;;5.32;3.53;;;;;;;4.27;76.16;100794.38;5073205;28;20016;-87
2023/03/06 00:26:44;;;;;;;10.15;4.63;;;;;;;4.08;76.77;100788.56;5090366;28;20513;-87
2023/03/06 00:29:09;;;;;;;8.18;4.25;;;;;;;4.09;76.52;100790.28;5060964;28;20063;-87
2023/03/06 00:31:34;;;;;;;5.50;4.25;;;;;;;4.09;76.67;100779.81;5090959;28;20026;-87
2023/03/06 00:34:00;;;;;;;6.10;3.95;;;;;;;4.12;76.31;100791.16;5073222;28;20422;-87
2023/03/06 00:36:26;;;;;;;10.65;4.75;;;;;;;4.16;76.26;100791.09;5072492;28;20032;-88
2023/03/06 00:38:51;;;;;;;8.18;4.32;;;;;;;4.16;76.64;100785.00;5073045;28;20036;-88
2023/03/06 00:41:16;;;;;;;7.85;4.75;;;;;;;4.19;76.34;100784.91;5072628;28;20554;-88
2023/03/06 00:43:42;;;;;;;6.82;4.43;;;;;;;4.23;76.44;100791.84;5072757;28;20039;-88
2023/03/06 00:46:07;;;;;;;10.57;4.60;;;;;;;4.24;76.69;100773.53;5072383;28;20365;-88
2023/03/06 00:48:33;;;;;;;6.57;4.30;;;;;;;4.27;76.67;100776.06;5090993;28;20403;-88
2023/03/06 00:50:58;;;;;;;6.45;4.28;;;;;;;4.19;76.76;100767.47;5090881;28;20020;-88
2023/03/06 00:53:24;;;;;;;9.75;4.45;;;;;;;4.19;76.85;100766.59;5091038;28;20024;-88
2023/03/06 00:55:50;;;;;;;7.45;4.47;;;;;;;4.15;76.99;100770.16;5090167;28;20044;-88
2023/03/06 00:58:16;;;;;;;7.95;4.65;;;;;;;4.16;76.93;100769.28;5090854;28;20073;-88
2023/03/06 01:00:42;;;;;;;9.18;4.97;;;;;;;4.18;77.06;100767.50;5090332;28;20158;-88
2023/03/06 01:03:07;;;;;;;11.85;5.68;;;;;;;4.08;77.25;100758.94;5072444;28;20119;-88
2023/03/06 01:05:34;;;;;;;9.75;4.70;;;;;;;4.16;77.16;100761.44;5068937;28;20119;-88
2023/03/06 01:08:00;;;;;;;8.38;4.65;;;;;;;4.08;77.07;100751.94;5090118;28;20028;-88
2023/03/06 01:10:26;;;;;;;6.53;4.90;;;;;;;4.10;77.08;100767.59;5072256;28;20042;-88
2023/03/06 01:12:51;;;;;;;7.38;4.68;;;;;;;4.07;76.95;100760.69;5090021;28;20035;-88
2023/03/06 01:15:17;;;;;;;8.30;5.07;;;;;;;4.02;76.98;100759.88;5089442;28;20047;-88
2023/03/06 01:17:43;;;;;;;11.23;5.10;;;;;;;3.98;76.87;100765.19;5089684;28;20043;-88
2023/03/06 01:20:13;;;;;;;11.20;5.40;;;;;;;3.91;77.33;100764.38;5090366;28;20020;-88
2023/03/06 01:22:38;;;;;;;9.73;4.88;;;;;;;3.89;77.11;100747.88;5076442;28;20380;-88
2023/03/06 01:25:03;;;;;;;9.05;5.30;;;;;;;3.82;77.32;100740.97;5089741;28;20035;-88
2023/03/06 01:27:29;;;;;;;8.90;5.20;;;;;;;3.92;77.36;100754.81;5077539;28;20393;-88
2023/03/06 01:29:54;;;;;;;9.52;5.30;;;;;;;3.88;77.46;100751.38;5072169;28;20020;-88
2023/03/06 01:32:20;;;;;;;8.88;5.60;;;;;;;3.86;77.47;100755.75;5071739;28;20032;-88
2023/03/06 01:34:46;;;;;;;12.20;5.90;;;;;;;3.77;77.50;100753.25;5090051;28;20034;-88
2023/03/06 01:37:11;;;;;;;8.63;5.07;;;;;;;3.67;77.37;100741.19;5071366;28;20024;-88
2023/03/06 01:39:37;;;;;;;9.23;5.20;;;;;;;3.68;77.58;100756.84;5072093;28;20069;-88
2023/03/06 01:42:03;;;;;;;11.15;5.63;;;;;;;3.64;77.63;100746.47;5090080;28;20024;-87
2023/03/06 01:44:28;;;;;;;8.63;5.45;;;;;;;3.56;77.51;100743.97;5071959;28;20035;-88
2023/03/06 01:46:53;;;;;;;11.32;5.63;;;;;;;3.53;77.63;100746.59;5064325;28;20050;-88
2023/03/06 01:49:24;;;;;;;9.55;5.50;;;;;;;3.43;77.89;100747.63;5090009;28;20111;-88
2023/03/06 01:52:15;;;;;;;9.63;5.30;;;;;;;3.43;77.61;100742.38;5089856;28;20360;-87
2023/03/06 01:54:49;;;;;;;9.73;5.97;;;;;;;3.30;78.23;100737.31;5089690;28;20051;-88
2023/03/06 01:57:21;;;;;;;9.63;5.95;;;;;;;3.23;78.27;100727.81;5089700;28;20489;-88
2023/03/06 01:59:50;;;;;;;;;;;;;;;3.39;76.69;100736.31;5090149;28;20459;-88
2023/03/06 02:02:15;;;;;;;9.63;5.53;;;;;;;3.17;78.16;100725.28;5089683;28;19916;-88
2023/03/06 02:04:42;;;;;;;11.25;5.57;;;;;;;3.15;78.03;100716.59;5089745;28;20081;-88
2023/03/06 02:07:09;;;;;;;11.57;5.97;;;;;;;3.07;78.26;100723.66;5088530;28;20104;-88
2023/03/06 02:09:35;;;;;;;8.90;5.60;;;;;;;2.94;78.40;100716.84;5089619;28;20035;-88
2023/03/06 02:12:04;;;;;;;10.80;6.03;;;;;;;2.81;78.27;100706.53;5071590;28;20024;-88
2023/03/06 02:14:30;;;;;;;12.45;7.13;;;;;;;2.80;78.36;100725.69;5089685;28;20032;-88
2023/03/06 02:16:55;;;;;;;11.35;5.70;;;;;;;2.72;78.60;100706.63;5089406;28;20023;-88
2023/03/06 02:19:54;;;;;;;11.07;5.63;;;;;;;2.76;78.06;100712.69;5071655;28;20643;-88
2023/03/06 02:22:21;;;;;;;16.73;6.47;;;;;;;2.60;78.36;100706.75;5089613;28;20020;-88
2023/03/06 02:25:16;;;;;;;11.73;6.07;;;;;;;2.54;78.75;100705.06;5071203;28;20077;-88
2023/03/06 02:27:41;;;;;;;10.35;5.63;;;;;;;2.44;78.81;100694.72;5056478;28;20050;-88
2023/03/06 02:30:08;;;;;;;11.18;6.10;;;;;;;2.53;78.57;100702.47;5089580;28;20103;-88
2023/03/06 02:32:33;;;;;;;10.35;6.32;;;;;;;2.54;78.43;100689.41;5072900;28;20085;-88
2023/03/06 02:34:58;;;;;;;10.77;6.18;;;;;;;2.54;78.65;100693.75;5093461;28;20020;-88
2023/03/06 02:37:26;;;;;;;11.23;6.90;;;;;;;2.42;78.93;100686.03;5075212;28;20445;-87
2023/03/06 02:39:58;;;;;;;11.20;6.72;;;;;;;2.36;78.96;100684.34;5075102;28;20028;-87
2023/03/06 02:42:27;;;;;;;;;;;;;;;2.41;77.91;100689.53;5093855;28;20220;-87
2023/03/06 02:44:54;;;;;;;11.07;5.90;;;;;;;2.26;78.88;100683.56;5093389;28;19908;-87
2023/03/06 02:47:20;;;;;;;10.30;5.93;;;;;;;2.19;78.68;100674.09;5075053;28;20020;-87
2023/03/06 02:49:45;;;;;;;9.18;5.68;;;;;;;2.21;78.92;100685.34;5074803;28;20089;-87
2023/03/06 02:52:10;;;;;;;11.18;6.10;;;;;;;2.23;78.92;100680.13;5074775;28;20163;-87
2023/03/06 02:54:39;;;;;;;11.18;6.18;;;;;;;2.19;79.05;100668.88;5092894;28;20047;-88
2023/03/06 02:57:04;;;;;;;9.85;5.82;;;;;;;2.21;79.05;100680.16;5091320;28;20024;-88
2023/03/06 02:59:29;;;;;;;12.48;6.15;;;;;;;2.23;78.90;100680.13;5074627;28;20020;-88
2023/03/06 03:01:55;;;;;;;12.70;6.85;;;;;;;2.16;79.12;100671.50;5092917;28;20020;-87
2023/03/06 03:04:20;;;;;;;9.65;5.38;;;;;;;2.19;79.09;100678.41;5092463;28;20028;-88
2023/03/06 03:06:45;;;;;;;12.70;6.20;;;;;;;2.23;79.24;100680.13;5074626;28;20035;-87
2023/03/06 03:09:10;;;;;;;12.52;6.78;;;;;;;2.18;79.24;100666.25;5092862;28;20472;-88
2023/03/06 03:11:36;;;;;;;9.38;5.65;;;;;;;2.20;79.15;100667.13;5092892;28;20032;-87
2023/03/06 03:14:01;;;;;;;8.80;5.28;;;;;;;2.19;78.11;100667.97;5092521;28;20032;-88
2023/03/06 03:16:26;;;;;;;11.13;5.80;;;;;;;2.14;79.47;100664.56;5092305;28;20375;-87
2023/03/06 03:18:52;;;;;;;14.13;7.63;;;;;;;2.07;79.49;100662.88;5079441;28;20032;-87
2023/03/06 03:21:17;;;;;;;10.30;5.68;;;;;;;2.09;79.40;100664.59;5074196;28;20110;-88
2023/03/06 03:23:42;;;;;;;12.23;6.15;;;;;;;2.01;79.23;100653.38;5092703;28;20064;-87
2023/03/06 03:26:11;;;;;;;11.98;6.43;;;;;;;2.02;79.03;100665.53;5088363;28;20028;-88
2023/03/06 03:28:36;;;;;;;11.80;6.30;;;;;;;1.83;79.28;100641.34;5089714;28;20024;-88
2023/03/06 03:31:04;;;;;;;9.80;6.43;;;;;;;1.78;79.12;100648.34;5074240;28;20043;-87
2023/03/06 03:33:29;;;;;;;14.88;6.43;;;;;;;1.73;79.05;100650.97;5074237;28;20024;-88
2023/03/06 03:35:56;;;;;;;12.48;7.03;;;;;;;1.61;79.47;100629.34;5073625;28;20028;-87
2023/03/06 03:38:22;;;;;;;10.95;5.82;;;;;;;1.72;79.34;100640.53;5073977;28;20495;-87
2023/03/06 03:40:47;;;;;;;14.57;6.15;;;;;;;1.63;78.54;100622.38;5073937;28;20016;-87
2023/03/06 03:43:12;;;;;;;10.90;5.97;;;;;;;1.61;78.67;100626.75;5073838;28;20020;-88
2023/03/06 03:45:38;;;;;;;12.32;6.28;;;;;;;1.49;79.18;100619.84;5073854;28;20028;-87
2023/03/06 03:48:04;;;;;;;11.05;6.05;;;;;;;1.47;79.24;100624.22;5089782;28;20028;-87
2023/03/06 03:50:29;;;;;;;12.25;6.30;;;;;;;1.33;79.77;100613.91;5073928;28;20486;-87
2023/03/06 03:52:54;;;;;;;11.98;6.43;;;;;;;1.33;80.30;100611.28;5073856;28;20801;-87
2023/03/06 03:55:20;;;;;;;13.30;7.07;;;;;;;1.33;80.45;100607.81;5091582;28;20681;-87
2023/03/06 03:57:45;;;;;;;11.05;6.40;;;;;;;1.38;80.46;100612.13;5091406;28;20032;-87
2023/03/06 04:00:15;;;;;;;11.88;5.63;;;;;;;1.37;80.39;100599.13;5073401;28;20035;-87
2023/03/06 04:02:41;;;;;;;12.77;6.22;;;;;;;1.38;80.62;100593.03;5073526;28;20425;-87
2023/03/06 04:05:06;;;;;;;16.45;6.88;;;;;;;1.48;80.49;100599.91;5082290;28;20533;-86
2023/03/06 04:07:32;;;;;;;15.63;7.25;;;;;;;1.51;80.42;100595.53;5091037;28;20032;-87
2023/03/06 04:09:57;;;;;;;13.82;6.60;;;;;;;1.57;80.23;100604.19;5073444;28;20080;-87
2023/03/06 04:12:22;;;;;;;11.68;5.95;;;;;;;1.85;79.59;100603.09;5073477;28;20076;-88
2023/03/06 04:14:48;;;;;;;13.45;6.65;;;;;;;1.67;79.99;100588.47;5073507;28;20024;-88
2023/03/06 04:17:13;;;;;;;13.10;7.03;;;;;;;1.69;80.37;100591.09;5070168;28;20020;-88
2023/03/06 04:19:38;;;;;;;13.98;7.00;;;;;;;1.66;80.37;100586.75;5062328;28;20016;-87
2023/03/06 04:22:04;;;;;;;13.68;7.07;;;;;;;1.71;80.42;100598.00;5091610;28;20491;-87
2023/03/06 04:24:29;;;;;;;13.90;6.97;;;;;;;1.73;80.57;100592.78;5073204;28;20122;-87
2023/03/06 04:26:54;;;;;;;16.33;7.82;;;;;;;1.74;80.88;100594.50;5066697;28;20032;-87
2023/03/06 04:29:19;;;;;;;20.27;9.77;;;;;;;1.73;81.18;100592.78;5073569;28;20073;-87
2023/03/06 04:31:45;;;;;;;19.65;8.60;;;;;;;1.72;81.45;100588.44;5073050;28;20119;-87
2023/03/06 04:34:10;;;;;;;19.02;8.75;;;;;;;1.73;81.18;100575.41;5073248;28;20036;-88
2023/03/06 04:36:35;;;;;;;18.77;8.52;;;;;;;1.86;81.30;100591.78;5087855;28;20463;-88
2023/03/06 04:39:01;;;;;;;21.92;9.38;;;;;;;1.84;81.45;100582.25;5073536;28;20058;-87
2023/03/06 04:41:26;;;;;;;24.70;10.57;;;;;;;1.84;81.88;100575.31;5072914;28;20023;-87
2023/03/06 04:43:52;;;;;;;24.80;10.52;;;;;;;1.85;81.73;100570.94;5091384;28;20454;-87
2023/03/06 04:46:18;;;;;;;22.90;10.30;;;;;;;1.93;81.88;100574.38;5071697;28;20028;-87
2023/03/06 04:48:43;;;;;;;25.17;11.48;;;;;;;2.01;81.95;100588.19;5061551;28;20548;-88
2023/03/06 04:51:11;;;;;;;21.88;9.45;;;;;;;1.96;81.79;100570.00;5073409;28;20525;-88
2023/03/06 04:53:37;;;;;;;19.00;10.50;;;;;;;1.87;82.33;100562.25;5073652;28;20019;-87
2023/03/06 04:56:02;;;;;;;22.92;10.80;;;;;;;1.87;82.41;100554.44;5072141;28;20113;-87
2023/03/06 04:58:28;;;;;;;22.80;10.50;;;;;;;2.04;82.09;100580.31;5084321;28;20131;-88
2023/03/06 05:00:53;;;;;;;27.00;11.27;;;;;;;2.05;82.06;100566.41;5072908;28;20118;-87
2023/03/06 05:03:18;;;;;;;25.58;10.95;;;;;;;2.13;81.62;100576.78;5091304;28;20020;-87
2023/03/06 05:05:44;;;;;;;26.67;11.77;;;;;;;1.98;82.24;100552.56;5072835;28;20514;-87
2023/03/06 05:08:14;;;;;;;26.55;11.40;;;;;;;2.12;82.12;100568.09;5063994;28;20036;-87
2023/03/06 05:10:39;;;;;;;24.30;10.98;;;;;;;2.15;81.94;100567.22;5091068;28;20020;-88
2023/03/06 05:13:05;;;;;;;28.33;12.32;;;;;;;2.13;81.76;100561.13;5072729;28;20038;-87
2023/03/06 05:15:30;;;;;;;26.98;10.85;;;;;;;2.10;82.16;100549.00;5090445;28;20488;-88
2023/03/06 05:17:55;;;;;;;27.15;12.02;;;;;;;2.13;82.03;100559.38;5065562;28;20035;-87
2023/03/06 05:20:21;;;;;;;23.63;11.38;;;;;;;2.08;82.18;100548.13;5072612;28;20376;-87
2023/03/06 05:22:46;;;;;;;28.90;12.77;;;;;;;2.22;81.95;100558.44;5090608;28;20028;-87
2023/03/06 05:25:11;;;;;;;31.73;12.35;;;;;;;2.22;82.17;100567.09;5072550;28;20158;-87
2023/03/06 05:27:37;;;;;;;26.83;12.30;;;;;;;2.23;82.11;100558.41;5086651;28;20016;-87
2023/03/06 05:30:03;;;;;;;25.77;12.10;;;;;;;2.21;81.97;100535.84;5072370;28;20479;-87
2023/03/06 05:32:29;;;;;;;28.30;11.65;;;;;;;2.32;81.99;100559.19;5072258;28;20039;-87
2023/03/06 05:34:54;;;;;;;30.27;12.68;;;;;;;2.32;81.96;100556.56;5090372;28;20016;-88
2023/03/06 05:37:21;;;;;;;29.90;12.77;;;;;;;2.23;82.26;100536.69;5089363;28;20435;-88
2023/03/06 05:39:47;;;;;;;30.90;13.65;;;;;;;2.23;82.11;100534.94;5090388;28;20028;-88
2023/03/06 05:42:12;;;;;;;29.00;13.25;;;;;;;2.39;81.82;100548.69;5064490;28;20035;-88
2023/03/06 05:44:37;;;;;;;29.27;13.20;;;;;;;2.44;81.67;100548.63;5066748;28;20059;-88
2023/03/06 05:47:03;;;;;;;29.83;13.48;;;;;;;2.46;81.81;100544.25;5072022;28;20022;-88
2023/03/06 05:49:33;;;;;;;30.98;13.23;;;;;;;2.51;81.44;100542.44;5090494;28;20024;-88
2023/03/06 05:51:59;;;;;;;30.92;13.73;;;;;;;2.52;81.89;100546.81;5072390;28;20476;-88
2023/03/06 05:54:25;;;;;;;32.10;13.93;;;;;;;2.49;81.55;100545.06;5090104;28;20052;-88
2023/03/06 05:56:51;;;;;;;30.38;12.65;;;;;;;2.56;81.60;100548.47;5085591;28;20498;-88
2023/03/06 05:59:16;;;;;;;32.78;13.43;;;;;;;2.50;81.84;100527.66;5085530;28;20024;-88
2023/03/06 06:01:42;;;;;;;26.63;12.70;;;;;;;2.39;81.90;100530.41;5072264;28;20051;-88
2023/03/06 06:04:07;;;;;;;31.23;13.70;;;;;;;2.49;81.90;100545.06;5072453;28;20488;-88
2023/03/06 06:06:33;;;;;;;31.33;13.90;;;;;;;2.52;81.98;100531.16;5071875;28;20031;-88
2023/03/06 06:08:58;;;;;;;35.22;14.00;;;;;;;2.58;81.64;100548.47;5094338;28;20024;-87
2023/03/06 06:11:23;;;;;;;30.98;13.77;;;;;;;2.57;81.85;100546.75;5076194;28;20064;-87
2023/03/06 06:13:49;;;;;;;30.80;13.73;;;;;;;2.77;80.62;100542.97;5076471;28;20020;-87
2023/03/06 06:16:15;;;;;;;30.08;14.00;;;;;;;2.84;80.31;100540.28;5076657;28;20017;-87
2023/03/06 06:18:41;;;;;;;30.90;13.02;;;;;;;2.79;80.56;100535.97;5076176;28;20467;-87
2023/03/06 06:21:08;;;;;;;31.98;14.10;;;;;;;2.91;80.39;100542.81;5094191;28;20089;-88
2023/03/06 06:23:34;;;;;;;29.88;14.18;;;;;;;2.88;80.41;100542.84;5094101;28;20032;-87
2023/03/06 06:26:04;;;;;;;36.03;15.30;;;;;;;2.89;80.90;100538.47;5075562;28;20495;-88
2023/03/06 06:28:30;;;;;;;34.60;15.18;;;;;;;2.70;81.21;100538.72;5092556;28;20032;-88
2023/03/06 06:30:55;;;;;;;32.10;14.23;;;;;;;2.72;81.46;100539.56;5075559;28;20449;-88
2023/03/06 06:33:21;;;;;;;29.48;13.52;;;;;;;2.72;81.28;100543.94;5093637;28;20081;-87
2023/03/06 06:35:47;;;;;;;28.75;12.82;;;;;;;2.70;81.85;100524.81;5075751;28;20505;-88
2023/03/06 06:38:12;;;;;;;33.35;13.82;;;;;;;2.72;81.29;100538.72;5063369;28;21198;-88
2023/03/06 06:40:37;;;;;;;35.72;14.40;;;;;;;2.62;81.80;100524.06;5075641;28;20031;-88
2023/03/06 06:43:02;;;;;;;34.63;14.25;;;;;;;2.62;81.95;100521.44;5093648;28;20111;-87
2023/03/06 06:45:28;;;;;;;29.30;13.88;;;;;;;2.71;81.80;100539.59;5093930;28;20035;-88
2023/03/06 06:47:53;;;;;;;30.63;14.23;;;;;;;2.70;82.02;100532.63;5084396;28;20032;-88
2023/03/06 06:50:18;;;;;;;32.20;14.32;;;;;;;2.75;82.13;100534.31;5093585;28;20020;-88
2023/03/06 06:52:44;;;;;;;36.13;14.05;;;;;;;2.79;82.19;100540.34;5093319;28;20475;-88
2023/03/06 06:55:10;;;;;;;27.38;12.85;;;;;;;2.77;81.67;100529.06;5093397;28;20092;-88
2023/03/06 06:57:35;;;;;;;32.50;14.48;;;;;;;2.81;82.05;100530.75;5075286;28;20433;-88
2023/03/06 07:00:01;;;;;;;32.42;14.55;;;;;;;2.89;81.84;100539.38;5074977;28;20032;-88
2023/03/06 07:02:26;;;;;;;35.70;14.40;;;;;;;2.93;81.76;100527.09;5074671;28;20024;-88
2023/03/06 07:04:52;;;;;;;32.00;14.07;;;;;;;2.91;81.83;100519.31;5074907;28;20087;-88
2023/03/06 07:07:17;;;;;;;33.13;14.75;;;;;;;2.99;81.68;100535.72;5074672;28;20031;-88
2023/03/06 07:09:42;;;;;;;36.40;14.18;;;;;;;3.04;81.72;100543.50;5074986;28;20250;-88
2023/03/06 07:12:08;;;;;;;32.10;14.73;;;;;;;3.02;81.59;100543.50;5074403;28;20028;-88
2023/03/06 07:14:33;;;;;;;34.03;14.50;;;;;;;3.04;81.69;100546.13;5092904;28;20113;-88
2023/03/06 07:16:58;;;;;;;33.40;14.13;;;;;;;3.02;81.70;100543.50;5074257;28;20096;-88
2023/03/06 07:19:23;;;;;;;38.70;16.15;;;;;;;3.16;81.74;100555.50;5074108;28;20024;-88
2023/03/06 07:21:49;;;;;;;35.55;15.60;;;;;;;3.15;81.69;100546.81;5092663;28;20172;-88
2023/03/06 07:24:14;;;;;;;34.25;15.00;;;;;;;3.16;81.44;100548.53;5074246;28;20039;-88
2023/03/06 07:26:45;;;;;;;36.08;16.08;;;;;;;3.20;81.70;100537.16;5092098;28;20016;-88
2023/03/06 07:29:10;;;;;;;35.53;15.70;;;;;;;3.35;81.80;100556.09;5093423;28;20696;-88
2023/03/06 07:31:35;;;;;;;36.17;16.15;;;;;;;3.36;81.31;100548.25;5074342;28;20074;-88
2023/03/06 07:34:01;;;;;;;35.00;16.48;;;;;;;3.35;81.36;100541.28;5092562;28;20070;-88
2023/03/06 07:36:26;;;;;;;39.72;15.52;;;;;;;3.38;81.18;100536.03;5074321;28;20052;-87
2023/03/06 07:38:51;;;;;;;38.15;16.98;;;;;;;3.44;81.48;100546.38;5062988;28;20420;-88
2023/03/06 07:41:17;;;;;;;36.60;15.25;;;;;;;3.47;81.32;100529.78;5092219;28;20028;-88
2023/03/06 07:43:44;;;;;;;35.10;15.63;;;;;;;3.63;81.13;100548.69;5092011;28;20032;-88
2023/03/06 07:46:11;;;;;;;39.17;17.17;;;;;;;3.68;80.75;100539.88;5092090;28;20024;-88
2023/03/06 07:48:37;;;;;;;36.42;17.17;;;;;;;3.82;80.62;100542.25;5083361;28;20024;-88
2023/03/06 07:51:14;;;;;;;30.42;13.88;;;;;;;3.88;80.25;100528.25;5078435;28;20036;-88
2023/03/06 07:53:39;;;;;;;37.08;16.95;;;;;;;3.83;80.30;100549.25;5074050;28;20073;-88
2023/03/06 07:56:07;;;;;;;37.83;17.52;;;;;;;3.82;80.42;100555.31;5072525;28;20048;-88
2023/03/06 07:58:33;;;;;;;37.53;16.83;;;;;;;3.78;80.38;100551.94;5092501;28;20088;-88
2023/03/06 08:01:03;;;;;;;36.20;16.35;;;;;;;3.83;80.77;100555.31;5074418;28;21046;-88
2023/03/06 08:03:28;;;;;;;38.47;17.23;;;;;;;3.73;80.56;100538.06;5074490;28;20016;-88
2023/03/06 08:05:53;;;;;;;42.28;16.33;;;;;;;3.81;80.92;100558.84;5074550;28;20096;-87
2023/03/06 08:08:18;;;;;;;36.65;16.83;;;;;;;3.84;80.93;100556.19;5073843;28;20035;-87
2023/03/06 08:10:47;;;;;;;36.92;15.73;;;;;;;3.87;80.84;100550.03;5092397;28;20073;-87
2023/03/06 08:13:13;;;;;;;26.95;12.00;;;;;;;3.98;79.95;100556.81;5073753;28;20039;-88
2023/03/06 08:15:38;;;;;;;37.95;16.98;;;;;;;4.03;80.57;100548.88;5092179;28;20036;-88
2023/03/06 08:18:03;;;;;;;32.30;15.65;;;;;;;4.11;80.43;100556.59;5092137;28;20026;-88
2023/03/06 08:20:29;;;;;;;40.03;17.75;;;;;;;4.13;80.19;100555.66;5094599;28;20467;-87
2023/03/06 08:22:54;;;;;;;35.88;16.23;;;;;;;4.21;80.36;100547.69;5074482;28;20027;-88
2023/03/06 08:25:19;;;;;;;36.17;15.93;;;;;;;4.34;79.73;100554.41;5093019;28;20081;-88
2023/03/06 08:27:46;;;;;;;36.38;15.88;;;;;;;4.38;79.66;100548.19;5085209;28;20056;-88
2023/03/06 08:30:12;;;;;;;36.35;16.10;;;;;;;4.45;79.42;100551.56;5087374;28;20077;-88
2023/03/06 08:32:37;;;;;;;33.03;15.52;;;;;;;4.43;78.85;100556.84;5076596;28;20413;-88
2023/03/06 08:35:03;;;;;;;34.30;14.90;;;;;;;4.37;79.25;100543.00;5099503;28;20340;-88
2023/03/06 08:37:29;;;;;;;33.58;15.18;;;;;;;4.32;78.98;100543.09;5069286;28;20028;-88
2023/03/06 08:39:54;;;;;;;35.08;15.30;;;;;;;4.43;79.41;100546.38;5069488;28;20506;-88
2023/03/06 08:42:19;;;;;;;38.40;16.27;;;;;;;4.70;78.57;100546.69;5073961;28;20441;-88
2023/03/06 08:44:45;;;;;;;37.15;15.55;;;;;;;4.97;78.13;100551.34;5073988;28;20020;-88
2023/03/06 08:47:10;;;;;;;31.65;15.20;;;;;;;5.59;77.67;100564.75;5091823;28;20031;-88
2023/03/06 08:49:38;;;;;;;32.85;15.88;;;;;;;6.45;74.82;100553.84;5073395;28;20024;-88
2023/03/06 08:52:04;;;;;;;32.45;15.38;;;;;;;6.85;71.99;100553.56;5073568;28;20076;-87
2023/03/06 08:54:29;;;;;;;33.45;15.60;;;;;;;7.03;70.92;100557.41;5091612;28;20692;-88
2023/03/06 08:56:54;;;;;;;28.33;13.07;;;;;;;7.03;71.03;100549.53;5073371;28;20585;-88
2023/03/06 08:59:20;;;;;;;29.27;14.02;;;;;;;6.83;71.87;100556.25;5093602;28;20039;-88
2023/03/06 09:01:45;;;;;;;29.35;13.77;;;;;;;7.43;70.12;100543.03;5094470;28;20493;-88
2023/03/06 09:04:11;;;;;;;26.85;13.13;;;;;;;7.52;69.72;100546.22;5076253;28;20028;-89
2023/03/06 09:06:40;;;;;;;28.67;13.93;;;;;;;7.79;69.44;100556.78;5093250;28;20031;-89
2023/03/06 09:09:06;;;;;;;24.77;12.30;;;;;;;7.42;68.64;100539.56;5094134;28;20032;-89
2023/03/06 09:11:31;;;;;;;25.00;12.68;;;;;;;7.24;68.69;100551.50;5073734;28;20057;-90
2023/03/06 09:13:57;;;;;;;23.92;12.35;;;;;;;7.07;69.41;100553.78;5092693;28;20020;-87
2023/03/06 09:16:23;;;;;;;25.98;12.43;;;;;;;7.14;70.55;100563.22;5074177;28;20016;-87
2023/03/06 09:18:52;;;;;;;26.70;12.73;;;;;;;7.36;68.40;100552.88;5093232;28;20199;-89
2023/03/06 09:21:19;;;;;;;25.48;12.15;;;;;;;7.47;68.14;100553.41;5074170;28;20501;-88
2023/03/06 09:23:44;;;;;;;24.23;12.90;;;;;;;7.10;68.78;100562.44;5074816;28;20028;-88
2023/03/06 09:26:11;;;;;;;26.48;12.45;;;;;;;6.77;70.81;100555.56;5089987;28;20039;-89
2023/03/06 09:28:39;;;;;;;24.40;12.68;;;;;;;6.49;71.06;100564.22;5069540;28;20472;-89
2023/03/06 09:31:16;;;;;;;23.90;10.30;;;;;;;6.45;71.54;100577.50;5081563;28;20363;-88
2023/03/06 09:33:42;;;;;;;20.75;10.30;;;;;;;6.35;71.52;100566.38;5072684;28;20038;-88
2023/03/06 09:36:12;;;;;;;20.38;11.00;;;;;;;6.18;71.30;100563.34;5073037;28;20032;-89
2023/03/06 09:38:37;;;;;;;20.95;10.18;;;;;;;6.23;71.54;100566.69;5061312;28;20119;-88
2023/03/06 09:41:23;;;;;;;22.33;11.88;;;;;;;6.25;71.57;100572.75;5084187;28;20492;-88
2023/03/06 09:43:52;;;;;;;24.05;12.55;;;;;;;6.18;71.26;100558.94;5079239;28;20020;-88
2023/03/06 09:46:46;;;;;;;19.23;9.90;;;;;;;6.24;71.54;100569.28;5090873;28;20024;-88
2023/03/06 09:49:11;;;;;;;18.23;10.07;;;;;;;6.11;71.18;100568.75;5069486;28;20024;-88
2023/03/06 09:52:11;;;;;;;17.48;10.48;;;;;;;6.12;71.78;100572.25;5059689;28;20042;-88
2023/03/06 09:54:44;;;;;;;17.27;9.95;;;;;;;6.11;71.78;100568.75;5090932;28;20406;-89
2023/03/06 09:57:21;;;;;;;21.13;10.13;;;;;;;6.09;71.86;100567.06;5093263;28;20032;-88
2023/03/06 09:59:50;;;;;;;21.33;9.95;;;;;;;6.07;72.29;100571.50;5064453;28;20560;-88
2023/03/06 10:02:30;;;;;;;18.80;10.40;;;;;;;6.08;71.87;100562.72;5091054;28;20494;-87
2023/03/06 10:05:00;;;;;;;23.00;11.43;;;;;;;6.08;71.76;100563.56;5053955;28;20100;-87
2023/03/06 10:07:54;;;;;;;19.35;10.65;;;;;;;6.16;72.00;100565.16;5086643;28;20529;-87
2023/03/06 10:10:46;;;;;;;20.63;10.40;;;;;;;6.23;72.01;100561.44;5084260;28;20490;-86
2023/03/06 10:13:23;;;;;;;18.58;9.65;;;;;;;6.23;71.57;100562.31;5070985;28;20028;-87
2023/03/06 10:15:50;;;;;;;22.73;9.60;;;;;;;6.14;70.97;100557.28;5090536;28;20031;-87
2023/03/06 10:18:16;;;;;;;19.95;10.05;;;;;;;6.11;71.32;100549.53;5090610;28;20047;-87
2023/03/06 10:20:44;;;;;;;15.73;9.57;;;;;;;6.24;70.88;100557.91;5090276;28;20124;-87
2023/03/06 10:23:23;;;;;;;21.38;9.68;;;;;;;6.35;70.92;100561.13;5072099;28;20024;-87
2023/03/06 10:26:25;;;;;;;17.13;10.13;;;;;;;6.43;70.29;100559.13;5059467;28;20391;-87
2023/03/06 10:29:02;;;;;;;17.83;9.95;;;;;;;6.48;71.31;100559.00;5090303;28;20020;-87
2023/03/06 10:31:27;;;;;;;19.52;9.32;;;;;;;6.67;70.12;100548.84;5073188;28;20024;-86
2023/03/06 10:33:57;;;;;;;20.17;10.50;;;;;;;6.80;69.41;100551.06;5072614;28;20364;-87
2023/03/06 10:36:26;;;;;;;19.23;9.82;;;;;;;6.88;68.51;100543.81;5090203;28;20056;-87
2023/03/06 10:38:53;;;;;;;18.90;10.90;;;;;;;7.19;68.82;100549.94;5085351;28;20058;-87
2023/03/06 10:41:34;;;;;;;15.82;8.82;;;;;;;7.61;67.91;100545.94;5071942;28;20031;-87
2023/03/06 10:44:00;;;;;;;14.02;8.02;;;;;;;8.02;65.22;100545.44;5090777;28;20074;-87
2023/03/06 10:46:34;;;;;;;17.95;8.27;;;;;;;8.70;64.04;100539.53;5073190;28;20032;-87
2023/03/06 10:49:29;;;;;;;16.30;8.93;;;;;;;9.36;61.41;100527.28;5089795;28;20442;-87
2023/03/06 10:51:55;;;;;;;14.73;9.15;;;;;;;9.91;60.58;100542.63;5066978;28;20708;-87
2023/03/06 10:54:21;;;;;;;17.00;8.98;;;;;;;10.41;57.46;100539.63;5094414;28;20026;-87
2023/03/06 10:56:47;;;;;;;17.05;9.75;;;;;;;10.72;57.91;100524.13;5095543;28;20119;-87
2023/03/06 10:59:16;;;;;;;14.45;8.38;;;;;;;11.45;55.60;100532.13;5090593;28;20104;-87
2023/03/06 11:01:49;;;;;;;16.17;8.68;;;;;;;11.37;55.51;100536.94;5095480;28;20387;-88
2023/03/06 11:04:23;;;;;;;15.73;9.02;;;;;;;11.67;56.05;100546.03;5076594;28;20034;-87
2023/03/06 11:07:16;;;;;;;15.50;8.13;;;;;;;12.11;55.79;100542.13;5094205;28;20059;-88
2023/03/06 11:09:46;;;;;;;14.43;7.68;;;;;;;11.54;52.85;100550.22;5092045;28;20024;-88
2023/03/06 11:12:24;;;;;;;17.10;9.23;;;;;;;10.31;55.67;100548.91;5091474;28;20020;-87
2023/03/06 11:15:28;;;;;;;15.75;9.15;;;;;;;9.88;57.82;100540.13;5090523;28;20031;-88
2023/03/06 11:18:27;;;;;;;17.15;9.32;;;;;;;9.22;60.51;100531.41;5012487;28;20061;-88
2023/03/06 11:20:54;;;;;;;13.95;8.30;;;;;;;8.83;60.73;100539.94;5018155;28;20029;-87
2023/03/06 11:23:31;;;;;;;17.98;9.15;;;;;;;8.71;61.75;100524.56;5074808;28;20038;-87